createdAt,value
2019-06-10T00:00:57.290Z,21.90
2019-06-10T00:03:27.889Z,21.90
2019-06-10T00:06:00.862Z,21.90
2019-06-10T00:08:30.842Z,21.90
2019-06-10T00:11:04.426Z,21.90
2019-06-10T00:13:33.781Z,21.90
2019-06-10T00:16:05.087Z,21.80
2019-06-10T00:18:42.289Z,21.80
2019-06-10T00:21:08.486Z,21.80
2019-06-10T00:23:41.071Z,21.70
2019-06-10T00:26:12.785Z,21.70
2019-06-10T00:28:43.289Z,21.70
2019-06-10T00:31:13.685Z,21.70
2019-06-10T00:33:44.206Z,21.70
2019-06-10T00:36:14.591Z,21.60
2019-06-10T00:38:45.105Z,21.60
2019-06-10T00:41:15.594Z,21.60
2019-06-10T00:43:46.177Z,21.50
2019-06-10T00:46:18.034Z,21.60
2019-06-10T00:48:50.751Z,21.50
2019-06-10T00:51:20.957Z,21.50
2019-06-10T00:53:51.675Z,21.50
2019-06-10T00:56:22.258Z,21.50
2019-06-10T00:58:52.970Z,21.50
2019-06-10T01:01:25.112Z,21.50
2019-06-10T01:03:55.539Z,21.50
2019-06-10T01:06:25.974Z,21.50
2019-06-10T01:08:56.711Z,21.50
2019-06-10T01:11:27.955Z,21.50
2019-06-10T01:14:01.429Z,21.50
2019-06-10T01:16:32.377Z,21.50
2019-06-10T01:19:03.797Z,21.60
2019-06-10T01:21:34.415Z,21.60
2019-06-10T01:24:05.092Z,21.60
2019-06-10T01:26:35.582Z,21.60
2019-06-10T01:29:06.100Z,21.60
2019-06-10T01:31:38.182Z,21.60
2019-06-10T01:34:10.024Z,21.60
2019-06-10T01:36:40.847Z,21.60
2019-06-10T01:39:12.063Z,21.60
2019-06-10T01:41:43.398Z,21.60
2019-06-10T01:44:14.687Z,21.50
2019-06-10T01:46:45.986Z,21.50
2019-06-10T01:49:18.054Z,21.50
2019-06-10T01:51:51.309Z,21.50
2019-06-10T01:54:21.289Z,21.50
2019-06-10T01:56:52.099Z,21.50
2019-06-10T01:59:22.479Z,21.50
2019-06-10T02:01:57.578Z,21.40
2019-06-10T02:04:27.944Z,21.50
2019-06-10T02:06:58.383Z,21.40
2019-06-10T02:09:30.998Z,21.40
2019-06-10T02:12:02.191Z,21.40
2019-06-10T02:14:32.883Z,21.40
2019-06-10T02:17:04.817Z,21.30
2019-06-10T02:19:35.216Z,21.30
2019-06-10T02:22:05.622Z,21.30
2019-06-10T02:24:37.609Z,21.30
2019-06-10T02:27:08.005Z,21.30
2019-06-10T02:29:38.433Z,21.20
2019-06-10T02:32:12.373Z,21.20
2019-06-10T02:34:53.594Z,21.10
2019-06-10T02:37:17.783Z,21.20
2019-06-10T02:39:46.546Z,21.10
2019-06-10T02:42:22.273Z,21.10
2019-06-10T02:44:54.073Z,21.10
2019-06-10T02:47:31.806Z,21.10
2019-06-10T02:50:01.935Z,21.10
2019-06-10T02:52:33.044Z,21.10
2019-06-10T02:55:03.750Z,21.00
2019-06-10T02:57:39.766Z,21.00
2019-06-10T03:00:19.820Z,21.00
2019-06-10T03:02:44.998Z,20.90
2019-06-10T03:05:18.809Z,20.90
2019-06-10T03:07:47.775Z,20.90
2019-06-10T03:10:19.529Z,20.90
2019-06-10T03:12:50.027Z,20.90
2019-06-10T03:15:20.461Z,20.80
2019-06-10T03:17:52.143Z,20.90
2019-06-10T03:20:24.724Z,20.90
2019-06-10T03:22:55.014Z,20.90
2019-06-10T03:25:27.750Z,20.90
2019-06-10T03:27:58.368Z,20.90
2019-06-10T03:30:41.107Z,21.00
2019-06-10T03:33:04.934Z,21.00
2019-06-10T03:35:34.915Z,21.00
2019-06-10T03:38:05.300Z,21.10
2019-06-10T03:40:36.547Z,21.10
2019-06-10T03:43:06.940Z,21.10
2019-06-10T03:45:37.425Z,21.10
2019-06-10T03:48:07.811Z,21.20
2019-06-10T03:50:43.115Z,21.20
2019-06-10T03:53:13.605Z,21.30
2019-06-10T03:55:44.070Z,21.40
2019-06-10T03:58:14.539Z,21.40
2019-06-10T04:00:44.971Z,21.50
2019-06-10T04:03:15.345Z,21.60
2019-06-10T04:05:45.774Z,21.60
2019-06-10T04:08:17.447Z,21.70
2019-06-10T04:10:47.969Z,21.80
2019-06-10T04:13:19.313Z,21.80
2019-06-10T04:15:50.047Z,21.90
2019-06-10T04:18:21.889Z,21.90
2019-06-10T04:20:52.981Z,22.00
2019-06-10T04:23:25.403Z,22.00
2019-06-10T04:25:55.683Z,22.10
2019-06-10T04:28:27.609Z,22.20
2019-06-10T04:31:02.602Z,22.30
2019-06-10T04:33:33.088Z,22.40
2019-06-10T04:36:03.729Z,22.50
2019-06-10T04:38:34.217Z,22.60
2019-06-10T04:41:04.910Z,22.80
2019-06-10T04:43:35.430Z,22.90
2019-06-10T04:46:05.820Z,23.00
2019-06-10T04:48:36.218Z,23.10
2019-06-10T04:51:06.719Z,23.20
2019-06-10T04:53:40.230Z,23.40
2019-06-10T04:56:12.261Z,23.50
2019-06-10T04:58:43.469Z,23.70
2019-06-10T05:01:15.407Z,23.80
2019-06-10T05:03:45.887Z,23.90
2019-06-10T05:06:16.379Z,24.10
2019-06-10T05:08:46.797Z,24.10
2019-06-10T05:11:19.092Z,24.20
2019-06-10T05:13:49.641Z,24.40
2019-06-10T05:16:23.414Z,24.50
2019-06-10T05:18:54.720Z,24.60
2019-06-10T05:21:26.709Z,24.80
2019-06-10T05:23:56.359Z,24.80
2019-06-10T05:26:27.653Z,25.00
2019-06-10T05:28:58.891Z,25.20
2019-06-10T05:31:31.020Z,25.50
2019-06-10T05:34:02.343Z,25.70
2019-06-10T05:36:34.651Z,26.00
2019-06-10T05:39:07.108Z,26.40
2019-06-10T05:41:39.251Z,26.90
2019-06-10T05:44:13.470Z,27.40
2019-06-10T05:46:43.755Z,28.00
2019-06-10T05:49:14.289Z,28.40
2019-06-10T05:51:44.825Z,28.80
2019-06-10T05:54:16.961Z,29.20
2019-06-10T05:56:48.287Z,29.80
2019-06-10T05:59:18.706Z,30.70
2019-06-10T06:01:49.151Z,31.70
2019-06-10T06:04:19.590Z,33.20
2019-06-10T06:06:53.022Z,34.50
2019-06-10T06:09:23.048Z,35.40
2019-06-10T06:11:53.533Z,36.40
2019-06-10T06:14:23.968Z,37.40
2019-06-10T06:16:54.372Z,37.80
2019-06-10T06:19:26.047Z,37.90
2019-06-10T06:21:56.557Z,37.90
2019-06-10T06:24:27.510Z,39.20
2019-06-10T06:26:58.029Z,39.80
2019-06-10T06:29:28.858Z,40.60
2019-06-10T06:31:59.701Z,40.90
2019-06-10T06:34:33.679Z,42.00
2019-06-10T06:39:37.069Z,41.30
2019-06-10T06:42:08.172Z,41.10
2019-06-10T06:44:40.094Z,41.00
2019-06-10T06:47:13.058Z,42.20
2019-06-10T06:49:43.377Z,43.50
2019-06-10T06:52:14.835Z,43.30
2019-06-10T06:54:45.412Z,42.80
2019-06-10T06:57:19.618Z,42.50
2019-06-10T06:59:52.471Z,42.70
2019-06-10T07:02:22.816Z,43.20
2019-06-10T07:04:53.331Z,43.40
2019-06-10T07:07:24.103Z,43.90
2019-06-10T07:09:55.381Z,43.90
2019-06-10T07:12:25.889Z,44.50
2019-06-10T07:14:56.599Z,44.50
2019-06-10T07:17:27.037Z,44.80
2019-06-10T07:19:57.723Z,44.20
2019-06-10T07:22:29.710Z,44.80
2019-06-10T07:25:04.111Z,44.40
2019-06-10T07:27:34.414Z,43.70
2019-06-10T07:30:12.573Z,43.90
2019-06-10T07:32:45.377Z,45.00
2019-06-10T07:35:13.496Z,44.80
2019-06-10T07:37:45.556Z,45.50
2019-06-10T07:40:16.062Z,45.40
2019-06-10T07:42:46.530Z,45.40
2019-06-10T07:45:18.078Z,46.40
2019-06-10T07:47:48.480Z,46.80
2019-06-10T07:50:22.579Z,46.80
2019-06-10T07:52:53.277Z,46.50
2019-06-10T07:55:23.726Z,46.30
2019-06-10T07:57:54.148Z,45.90
2019-06-10T08:00:25.728Z,46.70
2019-06-10T08:02:56.224Z,46.60
2019-06-10T08:05:26.633Z,46.50
2019-06-10T08:07:58.549Z,46.80
2019-06-10T08:10:28.970Z,47.50
2019-06-10T08:13:02.857Z,48.10
2019-06-10T08:15:33.205Z,49.30
2019-06-10T08:18:04.342Z,49.90
2019-06-10T08:20:45.083Z,50.10
2019-06-10T08:23:20.156Z,48.50
2019-06-10T08:25:56.566Z,48.30
2019-06-10T08:28:24.303Z,49.20
2019-06-10T08:30:54.882Z,48.80
2019-06-10T08:33:26.974Z,48.30
2019-06-10T08:36:00.560Z,47.70
2019-06-10T08:38:32.903Z,47.10
2019-06-10T08:41:03.375Z,46.80
2019-06-10T08:43:33.943Z,46.50
2019-06-10T08:46:04.467Z,47.50
2019-06-10T08:48:35.077Z,47.40
2019-06-10T08:51:08.244Z,47.50
2019-06-10T08:53:39.465Z,48.80
2019-06-10T08:56:10.021Z,49.50
2019-06-10T08:58:42.022Z,49.70
2019-06-10T09:01:13.419Z,49.60
2019-06-10T09:03:48.607Z,49.70
2019-06-10T09:06:16.345Z,49.20
2019-06-10T09:08:49.909Z,49.30
2019-06-10T09:11:23.562Z,50.40
2019-06-10T09:13:53.169Z,51.60
2019-06-10T09:16:23.988Z,52.00
2019-06-10T09:18:55.456Z,50.30
2019-06-10T09:21:26.082Z,49.30
2019-06-10T09:23:59.983Z,47.90
2019-06-10T09:26:29.897Z,47.30
2019-06-10T09:29:02.932Z,47.70
2019-06-10T09:31:33.275Z,47.50
2019-06-10T09:34:04.113Z,47.00
2019-06-10T09:36:34.735Z,46.80
2019-06-10T09:39:07.215Z,47.70
2019-06-10T09:41:43.214Z,48.50
2019-06-10T09:44:12.687Z,48.80
2019-06-10T09:46:47.020Z,48.70
2019-06-10T09:49:15.312Z,48.20
2019-06-10T09:51:48.892Z,47.90
2019-06-10T09:54:17.809Z,47.40
2019-06-10T09:56:50.013Z,46.60
2019-06-10T09:59:20.381Z,45.00
2019-06-10T10:01:57.458Z,43.20
2019-06-10T10:04:23.672Z,41.70
2019-06-10T10:06:57.215Z,39.90
2019-06-10T10:09:29.633Z,38.50
2019-06-10T10:12:00.060Z,37.70
2019-06-10T10:14:30.440Z,36.80
2019-06-10T10:17:04.471Z,36.00
2019-06-10T10:19:34.650Z,35.40
2019-06-10T10:22:05.250Z,35.10
2019-06-10T10:24:35.654Z,35.00
2019-06-10T10:27:09.365Z,34.90
2019-06-10T10:29:38.294Z,34.40
2019-06-10T10:32:08.774Z,34.00
2019-06-10T10:34:43.214Z,33.70
2019-06-10T10:37:12.859Z,33.50
2019-06-10T10:39:44.568Z,33.40
2019-06-10T10:42:16.895Z,33.20
2019-06-10T10:44:49.983Z,33.30
2019-06-10T10:47:19.478Z,33.10
2019-06-10T10:49:52.942Z,32.90
2019-06-10T10:52:22.417Z,32.90
2019-06-10T10:54:54.310Z,32.60
2019-06-10T10:57:25.250Z,32.40
2019-06-10T10:59:56.217Z,32.10
2019-06-10T11:02:26.914Z,32.10
2019-06-10T11:04:57.398Z,32.20
2019-06-10T11:07:27.851Z,32.40
2019-06-10T11:09:58.248Z,32.40
2019-06-10T11:12:33.088Z,32.20
2019-06-10T11:15:05.348Z,32.20
2019-06-10T11:17:35.845Z,32.10
2019-06-10T11:20:07.228Z,32.00
2019-06-10T11:22:37.662Z,32.00
2019-06-10T11:25:08.088Z,31.90
2019-06-10T11:27:38.525Z,31.80
2019-06-10T11:30:09.389Z,31.90
2019-06-10T11:32:39.883Z,31.90
2019-06-10T11:35:12.142Z,31.90
2019-06-10T11:37:42.912Z,32.00
2019-06-10T11:40:15.301Z,32.20
2019-06-10T11:42:46.299Z,32.30
2019-06-10T11:45:17.845Z,32.30
2019-06-10T11:47:49.351Z,32.20
2019-06-10T11:50:23.216Z,32.00
2019-06-10T11:52:56.942Z,32.10
2019-06-10T11:55:25.054Z,32.20
2019-06-10T11:57:57.581Z,32.10
2019-06-10T12:00:27.985Z,31.90
2019-06-10T12:02:59.027Z,31.90
2019-06-10T12:05:32.645Z,31.80
2019-06-10T12:08:02.974Z,31.80
2019-06-10T12:10:34.979Z,31.80
2019-06-10T12:13:07.252Z,31.70
2019-06-10T12:16:13.855Z,31.70
2019-06-10T12:18:13.192Z,31.70
2019-06-10T12:20:43.919Z,31.70
2019-06-10T12:23:14.438Z,31.70
2019-06-10T12:25:47.823Z,31.70
2019-06-10T12:28:17.015Z,31.60
2019-06-10T12:30:47.392Z,31.60
2019-06-10T12:33:21.408Z,31.50
2019-06-10T12:35:51.766Z,31.60
2019-06-10T12:38:23.578Z,31.60
2019-06-10T12:40:56.795Z,31.50
2019-06-10T12:43:26.170Z,31.30
2019-06-10T12:45:59.128Z,31.40
2019-06-10T12:48:29.873Z,31.40
2019-06-10T12:51:03.513Z,31.40
2019-06-10T12:53:32.784Z,31.40
2019-06-10T12:56:10.153Z,31.50
2019-06-10T12:58:37.517Z,31.50
2019-06-10T13:01:08.145Z,31.50
2019-06-10T13:03:38.633Z,31.40
2019-06-10T13:06:09.928Z,31.40
2019-06-10T13:08:42.798Z,31.40
2019-06-10T13:11:14.967Z,31.40
2019-06-10T13:13:45.865Z,31.40
2019-06-10T13:16:16.297Z,31.50
2019-06-10T13:18:46.870Z,31.50
2019-06-10T13:21:17.875Z,31.50
2019-06-10T13:23:48.590Z,31.60
2019-06-10T13:26:19.007Z,31.60
2019-06-10T13:28:49.391Z,31.60
2019-06-10T13:31:23.312Z,31.60
2019-06-10T13:33:54.234Z,31.60
2019-06-10T13:36:26.152Z,31.50
2019-06-10T13:38:57.632Z,31.50
2019-06-10T13:41:28.250Z,31.40
2019-06-10T13:43:59.968Z,31.40
2019-06-10T13:46:33.035Z,31.40
2019-06-10T13:49:08.616Z,31.40
2019-06-10T13:51:37.688Z,31.40
2019-06-10T13:54:10.564Z,31.30
2019-06-10T13:56:47.059Z,31.30
2019-06-10T13:59:14.485Z,31.30
2019-06-10T14:01:45.159Z,31.30
2019-06-10T14:04:22.076Z,31.30
2019-06-10T14:06:50.693Z,31.20
2019-06-10T14:09:22.742Z,31.30
2019-06-10T14:11:53.558Z,31.30
2019-06-10T14:14:23.943Z,31.30
2019-06-10T14:16:55.825Z,31.30
2019-06-10T14:19:26.448Z,31.30
2019-06-10T14:21:56.972Z,31.30
2019-06-10T14:24:27.361Z,31.30
2019-06-10T14:26:57.843Z,31.30
2019-06-10T14:29:28.305Z,31.30
2019-06-10T14:31:58.810Z,31.30
2019-06-10T14:34:29.198Z,31.30
2019-06-10T14:36:59.601Z,31.30
2019-06-10T14:39:32.901Z,31.30
2019-06-10T14:42:06.955Z,31.30
2019-06-10T14:44:37.780Z,31.30
2019-06-10T14:47:08.847Z,31.30
2019-06-10T14:49:39.456Z,31.30
2019-06-10T14:52:12.269Z,31.30
2019-06-10T14:54:42.860Z,31.30
2019-06-10T14:57:15.075Z,31.30
2019-06-10T14:59:46.408Z,31.30
2019-06-10T15:02:17.488Z,31.20
2019-06-10T15:04:48.068Z,31.20
2019-06-10T15:07:20.160Z,31.20
2019-06-10T15:09:52.585Z,31.20
2019-06-10T15:12:22.954Z,31.20
2019-06-10T15:14:53.583Z,31.20
2019-06-10T15:17:24.116Z,31.10
2019-06-10T15:19:54.804Z,31.10
2019-06-10T15:22:25.334Z,31.10
2019-06-10T15:24:55.871Z,31.10
2019-06-10T15:27:30.822Z,31.00
2019-06-10T15:29:58.623Z,31.00
2019-06-10T15:32:34.885Z,31.00
2019-06-10T15:35:04.630Z,31.00
2019-06-10T15:37:35.021Z,31.00
2019-06-10T15:40:06.750Z,31.00
2019-06-10T15:42:37.130Z,31.00
2019-06-10T15:45:07.942Z,31.10
2019-06-10T15:47:38.334Z,31.10
2019-06-10T15:50:13.173Z,31.10
2019-06-10T15:52:44.210Z,31.10
2019-06-10T15:55:47.698Z,31.00
2019-06-10T15:57:48.029Z,31.00
2019-06-10T16:00:22.267Z,31.00
2019-06-10T16:02:51.084Z,31.00
2019-06-10T16:05:25.159Z,31.00
2019-06-10T16:07:53.597Z,30.90
2019-06-10T16:10:27.752Z,30.90
2019-06-10T16:12:56.538Z,30.90
2019-06-10T16:15:28.417Z,30.80
2019-06-10T16:17:58.907Z,30.80
2019-06-10T16:20:32.382Z,30.80
2019-06-10T16:23:03.095Z,30.80
2019-06-10T16:25:33.569Z,30.80
2019-06-10T16:28:03.951Z,30.80
2019-06-10T16:30:34.361Z,30.90
2019-06-10T16:33:05.066Z,30.80
2019-06-10T16:35:35.554Z,30.80
2019-06-10T16:38:07.347Z,30.80
2019-06-10T16:40:37.774Z,30.70
2019-06-10T16:43:08.196Z,30.70
2019-06-10T16:45:38.615Z,30.70
2019-06-10T16:48:12.850Z,30.70
2019-06-10T16:50:42.821Z,30.70
2019-06-10T16:53:13.797Z,30.70
2019-06-10T16:55:44.273Z,30.70
2019-06-10T16:58:14.692Z,30.70
2019-06-10T17:00:46.952Z,30.70
2019-06-10T17:03:18.375Z,30.70
2019-06-10T17:05:48.909Z,30.60
2019-06-10T17:08:20.031Z,30.60
2019-06-10T17:10:53.445Z,30.60
2019-06-10T17:13:27.189Z,30.50
2019-06-10T17:15:57.841Z,30.50
2019-06-10T17:18:29.898Z,30.40
2019-06-10T17:21:03.577Z,30.40
2019-06-10T17:23:36.271Z,30.40
2019-06-10T17:26:04.540Z,30.30
2019-06-10T17:28:36.767Z,30.30
2019-06-10T17:31:07.423Z,30.20
2019-06-10T17:33:37.821Z,30.20
2019-06-10T17:36:08.692Z,30.20
2019-06-10T17:38:39.078Z,30.10
2019-06-10T17:41:09.480Z,30.10
2019-06-10T17:43:39.955Z,30.10
2019-06-10T17:46:12.394Z,30.10
2019-06-10T17:48:43.186Z,30.00
2019-06-10T17:51:13.787Z,29.90
2019-06-10T17:53:44.191Z,29.90
2019-06-10T17:56:14.576Z,29.80
2019-06-10T17:58:54.337Z,29.80
2019-06-10T18:01:18.912Z,29.70
2019-06-10T18:03:49.430Z,29.70
2019-06-10T18:06:23.838Z,29.70
2019-06-10T18:08:52.794Z,29.60
2019-06-10T18:11:25.122Z,29.50
2019-06-10T18:13:55.375Z,29.50
2019-06-10T18:16:26.637Z,29.40
2019-06-10T18:18:57.148Z,29.30
2019-06-10T18:21:28.737Z,29.30
2019-06-10T18:24:06.844Z,29.20
2019-06-10T18:26:34.198Z,29.10
2019-06-10T18:29:08.168Z,29.10
2019-06-10T18:31:37.123Z,29.00
2019-06-10T18:34:07.675Z,28.90
2019-06-10T18:36:38.208Z,28.80
2019-06-10T18:39:09.071Z,28.80
2019-06-10T18:41:40.213Z,28.70
2019-06-10T18:44:22.451Z,28.60
2019-06-10T18:46:43.574Z,28.60
2019-06-10T18:49:14.157Z,28.50
2019-06-10T18:51:46.080Z,28.40
2019-06-10T18:54:16.469Z,28.40
2019-06-10T18:56:48.436Z,28.30
2019-06-10T18:59:21.174Z,28.30
2019-06-10T19:01:52.770Z,28.30
2019-06-10T19:04:23.790Z,28.20
2019-06-10T19:06:54.218Z,28.20
2019-06-10T19:09:24.627Z,28.10
2019-06-10T19:11:57.911Z,28.10
2019-06-10T19:14:29.324Z,28.10
2019-06-10T19:16:59.863Z,28.10
2019-06-10T19:19:30.261Z,28.00
2019-06-10T19:22:08.240Z,28.00
2019-06-10T19:24:34.911Z,28.00
2019-06-10T19:27:05.582Z,27.90
2019-06-10T19:29:43.952Z,27.90
2019-06-10T19:32:08.981Z,27.90
2019-06-10T19:34:39.483Z,27.90
2019-06-10T19:37:10.098Z,27.80
2019-06-10T19:39:49.292Z,27.80
2019-06-10T19:42:13.077Z,27.80
2019-06-10T19:44:45.954Z,27.70
2019-06-10T19:47:16.032Z,27.70
2019-06-10T19:49:47.241Z,27.70
2019-06-10T19:52:18.024Z,27.70
2019-06-10T19:54:48.628Z,27.70
2019-06-10T19:57:19.103Z,27.70
2019-06-10T20:00:06.715Z,27.60
2019-06-10T20:02:22.558Z,27.60
2019-06-10T20:04:53.105Z,27.60
2019-06-10T20:07:25.217Z,27.60
2019-06-10T20:09:55.655Z,27.60
2019-06-10T20:12:26.477Z,27.50
2019-06-10T20:14:57.344Z,27.50
2019-06-10T20:17:27.778Z,27.40
2019-06-10T20:19:58.235Z,27.40
2019-06-10T20:22:28.825Z,27.40
2019-06-10T20:24:59.275Z,27.40
2019-06-10T20:27:30.113Z,27.30
2019-06-10T20:30:10.125Z,27.30
2019-06-10T20:32:33.676Z,27.30
2019-06-10T20:35:05.776Z,27.30
2019-06-10T20:37:37.557Z,27.20
2019-06-10T20:40:08.395Z,27.20
2019-06-10T20:42:40.153Z,27.10
2019-06-10T20:45:13.160Z,27.20
2019-06-10T20:47:46.537Z,27.10
2019-06-10T20:50:18.223Z,27.10
2019-06-10T20:52:49.077Z,27.10
2019-06-10T20:55:19.826Z,27.00
2019-06-10T20:58:02.339Z,27.00
2019-06-10T21:00:33.851Z,27.00
2019-06-10T21:03:04.682Z,26.90
2019-06-10T21:05:35.903Z,26.90
2019-06-10T21:08:06.498Z,26.80
2019-06-10T21:10:37.946Z,26.80
2019-06-10T21:13:08.505Z,26.80
2019-06-10T21:15:40.531Z,26.80
2019-06-10T21:18:13.187Z,26.80
2019-06-10T21:20:46.638Z,26.70
2019-06-10T21:23:16.993Z,26.70
2019-06-10T21:25:52.952Z,26.70
2019-06-10T21:28:23.377Z,26.60
2019-06-10T21:30:58.619Z,26.60
2019-06-10T21:33:28.291Z,26.60
2019-06-10T21:35:58.674Z,26.50
2019-06-10T21:38:32.279Z,26.50
2019-06-10T21:41:03.412Z,26.40
2019-06-10T21:43:33.978Z,26.30
2019-06-10T21:46:04.412Z,26.30
2019-06-10T21:48:36.281Z,26.30
2019-06-10T21:51:06.745Z,26.30
2019-06-10T21:53:38.761Z,26.20
2019-06-10T21:56:12.805Z,26.20
2019-06-10T21:58:43.923Z,26.10
2019-06-10T22:01:17.085Z,26.10
2019-06-10T22:03:51.983Z,26.00
2019-06-10T22:06:19.914Z,26.00
2019-06-10T22:08:53.065Z,26.00
2019-06-10T22:11:23.298Z,25.90
2019-06-10T22:13:56.118Z,25.90
2019-06-10T22:16:26.178Z,25.90
2019-06-10T22:18:56.652Z,25.80
2019-06-10T22:21:27.066Z,25.70
2019-06-10T22:23:57.502Z,25.80
2019-06-10T22:26:28.024Z,25.70
2019-06-10T22:28:59.898Z,25.70
2019-06-10T22:31:32.480Z,25.70
2019-06-10T22:34:03.335Z,25.60
2019-06-10T22:36:33.968Z,25.70
2019-06-10T22:39:05.511Z,25.60
2019-06-10T22:41:35.872Z,25.60
2019-06-10T22:44:07.899Z,25.60
2019-06-10T22:46:38.355Z,25.50
2019-06-10T22:49:08.827Z,25.50
2019-06-10T22:51:39.227Z,25.50
2019-06-10T22:54:09.759Z,25.30
2019-06-10T22:56:42.297Z,25.30
2019-06-10T22:59:13.169Z,25.30
2019-06-10T23:01:46.155Z,25.30
2019-06-10T23:04:16.555Z,25.30
2019-06-10T23:06:48.031Z,25.30
2019-06-10T23:09:18.650Z,25.20
2019-06-10T23:11:52.836Z,25.20
2019-06-10T23:14:22.819Z,25.20
2019-06-10T23:16:55.274Z,25.20
2019-06-10T23:19:27.252Z,25.10
2019-06-10T23:22:00.102Z,25.10
2019-06-10T23:24:32.215Z,25.00
2019-06-10T23:27:03.466Z,25.00
2019-06-10T23:29:34.033Z,24.90
2019-06-10T23:32:07.182Z,24.90
2019-06-10T23:34:36.514Z,24.90
2019-06-10T23:37:06.941Z,24.80
2019-06-10T23:39:37.349Z,24.90
2019-06-10T23:42:07.792Z,24.90
2019-06-10T23:44:38.245Z,24.80
2019-06-10T23:47:12.594Z,24.90
2019-06-10T23:49:42.190Z,24.90
2019-06-10T23:52:14.133Z,24.90
2019-06-10T23:54:44.559Z,24.90
2019-06-10T23:57:15.030Z,24.90
2019-06-10T23:59:45.521Z,24.80
